Time;durP1;ratioP1;P1;durP2;ratioP2;P2;SDS_P1;SDS_P2;PMS_P1;PMS_P2;Temp;Humidity;BMP_temperature;BMP_pressure;BME280_temperature;BME280_humidity;BME280_pressure;Samples;Min_cycle;Max_cycle;Signal;HPM_P1;HPM_P2
2023/08/13 00:00:01;;;;;;;3.97;3.67;;;18.20;99.90;;;;;;5102073;28;20412;-64
2023/08/13 00:02:26;;;;;;;4.20;3.77;;;18.30;99.90;;;;;;5104342;28;20930;-64
2023/08/13 00:04:53;;;;;;;7.13;3.67;;;18.30;99.90;;;;;;5104001;28;20551;-64
2023/08/13 00:07:19;;;;;;;5.60;3.27;;;18.30;99.90;;;;;;5103685;28;20330;-64
2023/08/13 00:09:44;;;;;;;4.43;3.60;;;18.30;99.90;;;;;;5104449;28;20486;-64
2023/08/13 00:12:10;;;;;;;5.20;3.67;;;18.30;99.90;;;;;;5103845;28;20923;-64
2023/08/13 00:14:36;;;;;;;4.27;3.77;;;18.40;99.90;;;;;;5104192;28;20183;-64
2023/08/13 00:17:02;;;;;;;6.60;4.73;;;18.30;99.90;;;;;;5103135;28;20821;-64
2023/08/13 00:19:27;;;;;;;3.53;3.20;;;18.40;99.90;;;;;;5104268;28;20183;-64
2023/08/13 00:21:53;;;;;;;4.90;3.53;;;18.40;99.90;;;;;;5103911;28;20184;-64
2023/08/13 00:24:19;;;;;;;3.90;3.47;;;18.30;99.90;;;;;;5104231;28;20191;-64
2023/08/13 00:26:44;;;;;;;4.07;3.67;;;18.30;99.90;;;;;;5103704;28;20226;-64
2023/08/13 00:29:10;;;;;;;4.97;3.57;;;18.30;99.90;;;;;;5113236;27;20243;-64
2023/08/13 00:31:35;;;;;;;3.57;2.97;;;18.20;99.90;;;;;;5124895;27;20175;-64
2023/08/13 00:34:01;;;;;;;4.60;3.60;;;18.20;99.90;;;;;;5123910;27;20175;-63
2023/08/13 00:36:27;;;;;;;4.60;3.47;;;18.20;99.90;;;;;;5123382;27;20321;-64
2023/08/13 00:38:52;;;;;;;3.80;3.27;;;18.20;99.90;;;;;;5124356;27;20179;-64
2023/08/13 00:41:18;;;;;;;5.27;3.60;;;18.10;99.90;;;;;;5123917;27;20694;-64
2023/08/13 00:43:44;;;;;;;6.80;3.63;;;18.10;99.90;;;;;;5124651;27;20183;-64
2023/08/13 00:46:10;;;;;;;7.80;3.20;;;18.10;99.90;;;;;;5123318;27;20214;-64
2023/08/13 00:48:37;;;;;;;5.63;4.30;;;18.10;99.90;;;;;;5123978;27;20912;-64
2023/08/13 00:51:04;;;;;;;4.60;3.20;;;18.10;99.90;;;;;;5123866;27;20428;-64
2023/08/13 00:53:29;;;;;;;4.60;3.10;;;18.10;99.90;;;;;;5124019;27;20409;-64
2023/08/13 00:55:56;;;;;;;3.37;3.07;;;18.10;99.90;;;;;;5123633;27;20416;-64
2023/08/13 00:58:23;;;;;;;5.87;3.40;;;18.10;99.90;;;;;;5122099;27;20601;-64
2023/08/13 01:00:48;;;;;;;5.50;3.20;;;17.90;99.90;;;;;;5122447;27;20416;-64
2023/08/13 01:03:14;;;;;;;5.27;3.80;;;18.00;99.90;;;;;;5112394;27;20437;-64
2023/08/13 01:06:08;;;;;;;4.10;3.33;;;18.00;99.90;;;;;;5102855;28;20218;-64
2023/08/13 01:08:49;;;;;;;4.43;3.17;;;17.90;99.90;;;;;;5102927;28;21062;-64
2023/08/13 01:11:25;;;;;;;5.63;3.40;;;17.90;99.90;;;;;;5102482;28;20453;-64
2023/08/13 01:14:23;;;;;;;5.50;3.30;;;18.00;99.90;;;;;;5102950;28;20417;-64
2023/08/13 01:16:52;;;;;;;5.53;3.67;;;18.00;99.90;;;;;;5096692;28;20802;-64
2023/08/13 01:19:17;;;;;;;5.80;3.10;;;18.00;99.90;;;;;;5102262;28;20503;-64
2023/08/13 01:21:43;;;;;;;3.93;3.37;;;18.00;99.90;;;;;;5103199;28;20500;-64
2023/08/13 01:24:09;;;;;;;6.00;3.87;;;18.00;99.90;;;;;;5102494;28;20180;-63
2023/08/13 01:26:47;;;;;;;4.37;3.40;;;18.00;99.90;;;;;;5102243;28;20218;-64
2023/08/13 01:29:20;;;;;;;8.80;3.73;;;18.00;99.90;;;;;;5101732;28;20776;-64
2023/08/13 01:31:50;;;;;;;3.37;2.87;;;18.00;99.90;;;;;;5103166;28;20425;-64
2023/08/13 01:34:17;;;;;;;4.20;3.20;;;18.00;99.90;;;;;;5102264;28;20414;-64
2023/08/13 01:36:45;;;;;;;6.07;3.80;;;18.00;99.90;;;;;;5101730;28;20465;-64
2023/08/13 01:39:11;;;;;;;5.73;3.40;;;18.00;99.90;;;;;;5101958;28;20509;-64
2023/08/13 01:41:50;;;;;;;6.13;3.37;;;18.00;99.90;;;;;;5102533;28;20418;-64
2023/08/13 01:44:16;;;;;;;6.00;4.03;;;18.00;99.90;;;;;;5102091;28;20775;-64
2023/08/13 01:46:42;;;;;;;4.00;2.93;;;18.00;99.90;;;;;;5101822;28;20518;-64
2023/08/13 01:49:08;;;;;;;6.83;3.50;;;18.00;99.90;;;;;;5102631;28;20414;-64
2023/08/13 01:51:33;;;;;;;4.73;3.70;;;18.00;99.90;;;;;;5101934;28;20183;-64
2023/08/13 01:53:59;;;;;;;8.03;2.67;;;18.00;99.90;;;;;;5102597;28;20198;-64
2023/08/13 01:56:25;;;;;;;6.40;3.57;;;18.00;99.90;;;;;;5100948;28;20183;-64
2023/08/13 01:58:50;;;;;;;3.33;3.03;;;18.00;99.90;;;;;;5100936;28;20180;-64
2023/08/13 02:01:16;;;;;;;6.27;3.50;;;18.00;99.90;;;;;;5101669;28;20171;-64
2023/08/13 02:03:42;;;;;;;3.70;2.83;;;17.90;99.90;;;;;;5102242;28;20180;-64
2023/08/13 02:06:07;;;;;;;5.77;4.00;;;17.90;99.90;;;;;;5101786;28;20210;-64
2023/08/13 02:08:33;;;;;;;5.03;3.10;;;17.90;99.90;;;;;;5101160;28;20186;-64
2023/08/13 02:10:58;;;;;;;4.03;2.60;;;17.80;99.90;;;;;;5101157;28;20887;-64
2023/08/13 02:13:24;;;;;;;5.63;2.83;;;17.70;99.90;;;;;;5101439;28;20864;-63
2023/08/13 02:15:50;;;;;;;4.00;3.03;;;17.70;99.90;;;;;;5101878;28;20175;-64
2023/08/13 02:18:16;;;;;;;4.57;3.27;;;17.70;99.90;;;;;;5101160;28;20183;-64
2023/08/13 02:20:41;;;;;;;4.90;3.50;;;17.70;99.90;;;;;;5101314;28;20211;-64
2023/08/13 02:23:07;;;;;;;4.13;3.03;;;17.60;99.90;;;;;;5102250;28;20709;-64
2023/08/13 02:25:33;;;;;;;3.80;2.90;;;17.60;99.90;;;;;;5100709;28;20200;-64
2023/08/13 02:27:58;;;;;;;4.67;2.83;;;17.60;99.90;;;;;;5101859;28;20275;-64
2023/08/13 02:30:24;;;;;;;7.53;3.13;;;17.50;99.90;;;;;;5121739;27;20185;-63
2023/08/13 02:32:50;;;;;;;4.17;2.97;;;17.60;99.90;;;;;;5122423;27;20266;-64
2023/08/13 02:35:15;;;;;;;4.23;2.77;;;17.60;99.90;;;;;;5122153;27;20250;-64
2023/08/13 02:37:41;;;;;;;10.63;3.40;;;17.50;99.90;;;;;;5120769;27;20214;-64
2023/08/13 02:40:07;;;;;;;3.30;2.70;;;17.50;99.90;;;;;;5122450;27;20186;-64
2023/08/13 02:42:33;;;;;;;8.70;4.03;;;17.50;99.90;;;;;;5121000;27;20190;-64
2023/08/13 02:44:59;;;;;;;5.60;3.10;;;17.50;99.90;;;;;;5122261;27;20478;-64
2023/08/13 02:47:25;;;;;;;8.40;3.57;;;17.50;99.90;;;;;;5121055;27;20460;-64
2023/08/13 02:49:50;;;;;;;12.40;3.23;;;17.40;99.90;;;;;;5122160;27;20186;-64
2023/08/13 02:52:16;;;;;;;8.63;3.67;;;17.50;99.90;;;;;;5122008;27;20368;-64
2023/08/13 02:54:42;;;;;;;4.17;2.53;;;17.40;99.90;;;;;;5120965;27;20237;-64
2023/08/13 02:57:08;;;;;;;5.33;3.37;;;17.50;99.90;;;;;;5121318;27;20187;-64
2023/08/13 02:59:33;;;;;;;3.73;2.80;;;17.50;99.90;;;;;;5120115;27;20203;-64
2023/08/13 03:01:59;;;;;;;5.90;3.20;;;17.40;99.90;;;;;;5121498;27;21081;-64
2023/08/13 03:04:24;;;;;;;3.53;3.07;;;17.40;99.90;;;;;;5122123;27;20183;-64
2023/08/13 03:06:50;;;;;;;4.80;2.90;;;17.40;99.90;;;;;;5110068;27;20748;-64
2023/08/13 03:09:23;;;;;;;4.20;3.07;;;17.40;99.90;;;;;;5101343;28;20199;-64
2023/08/13 03:11:49;;;;;;;7.47;3.60;;;17.40;99.90;;;;;;5100564;28;20179;-64
2023/08/13 03:14:15;;;;;;;6.97;3.30;;;17.30;99.90;;;;;;5101394;28;20506;-64
2023/08/13 03:16:41;;;;;;;5.37;3.60;;;17.30;99.90;;;;;;5099449;28;20425;-64
2023/08/13 03:19:06;;;;;;;5.20;2.87;;;17.30;99.90;;;;;;5098695;28;20793;-64
2023/08/13 03:21:32;;;;;;;5.77;3.00;;;17.20;99.90;;;;;;5102337;28;20223;-64
2023/08/13 03:23:58;;;;;;;6.93;3.67;;;17.20;99.90;;;;;;5105038;28;20298;-64
2023/08/13 03:26:23;;;;;;;6.97;3.30;;;17.20;99.90;;;;;;5104629;28;20211;-64
2023/08/13 03:28:49;;;;;;;5.83;2.87;;;17.20;99.90;;;;;;5111089;27;20175;-64
2023/08/13 03:31:15;;;;;;;4.63;3.37;;;17.20;99.90;;;;;;5107037;27;20728;-64
2023/08/13 03:33:40;;;;;;;6.97;3.37;;;17.20;99.90;;;;;;5104323;28;20233;-64
2023/08/13 03:36:06;;;;;;;5.57;3.17;;;17.10;99.90;;;;;;5104543;28;20218;-64
2023/08/13 03:38:32;;;;;;;7.17;3.40;;;17.10;99.90;;;;;;5104626;28;20176;-64
2023/08/13 03:40:58;;;;;;;4.13;2.77;;;17.10;99.90;;;;;;5104635;28;20417;-63
2023/08/13 03:43:23;;;;;;;6.27;3.43;;;17.00;99.90;;;;;;5105228;28;20314;-64
2023/08/13 03:45:49;;;;;;;8.87;2.83;;;16.90;99.90;;;;;;5104005;28;20630;-64
2023/08/13 03:48:15;;;;;;;3.73;3.30;;;16.80;99.90;;;;;;5104389;28;20175;-64
2023/08/13 03:50:41;;;;;;;4.20;3.10;;;16.80;99.90;;;;;;5104503;28;20180;-63
2023/08/13 03:53:08;;;;;;;9.53;3.40;;;16.80;99.90;;;;;;5104907;28;20175;-64
2023/08/13 03:55:34;;;;;;;4.03;2.90;;;16.70;99.90;;;;;;5104496;28;21144;-64
2023/08/13 03:58:00;;;;;;;5.40;3.30;;;16.80;99.90;;;;;;5103992;28;21118;-63
2023/08/13 04:00:25;;;;;;;4.10;2.97;;;16.80;99.90;;;;;;5102956;28;20797;-63
2023/08/13 04:02:51;;;;;;;3.60;3.00;;;16.70;99.90;;;;;;5104191;28;20283;-63
2023/08/13 04:05:17;;;;;;;3.80;2.80;;;16.60;99.90;;;;;;5104498;28;20179;-64
2023/08/13 04:07:43;;;;;;;5.13;3.77;;;16.60;99.90;;;;;;5103742;28;20203;-63
2023/08/13 04:10:09;;;;;;;4.83;3.00;;;16.60;99.90;;;;;;5105152;28;20183;-64
2023/08/13 04:12:34;;;;;;;6.90;3.70;;;16.50;99.90;;;;;;5104886;28;20429;-63
2023/08/13 04:15:02;;;;;;;4.80;2.90;;;16.50;99.90;;;;;;5103996;28;20475;-64
2023/08/13 04:17:27;;;;;;;4.57;2.47;;;16.50;99.90;;;;;;5103600;28;20714;-63
2023/08/13 04:19:53;;;;;;;6.30;3.27;;;16.60;99.90;;;;;;5103954;28;20425;-63
2023/08/13 04:22:19;;;;;;;2.67;2.47;;;16.60;99.90;;;;;;5104727;28;20180;-64
2023/08/13 04:24:50;;;;;;;7.47;3.10;;;16.60;99.90;;;;;;5102217;28;20250;-63
2023/08/13 04:27:16;;;;;;;6.17;3.20;;;16.60;99.90;;;;;;5103497;28;20335;-63
2023/08/13 04:29:42;;;;;;;12.33;3.90;;;16.60;99.90;;;;;;5071336;28;20422;-63
2023/08/13 04:32:08;;;;;;;5.20;3.47;;;16.60;99.90;;;;;;5082816;28;20425;-63
2023/08/13 04:34:33;;;;;;;5.33;2.87;;;16.60;99.90;;;;;;5083219;28;20183;-63
2023/08/13 04:36:59;;;;;;;6.33;3.40;;;16.60;99.90;;;;;;5081906;28;20216;-63
2023/08/13 04:39:24;;;;;;;6.57;2.93;;;16.60;99.90;;;;;;5083941;28;20177;-63
2023/08/13 04:41:50;;;;;;;5.37;3.27;;;16.50;99.90;;;;;;5082934;28;20181;-63
2023/08/13 04:44:16;;;;;;;3.10;2.70;;;16.50;99.90;;;;;;5083646;28;20183;-64
2023/08/13 04:46:42;;;;;;;3.37;2.50;;;16.50;99.90;;;;;;5082202;28;20226;-63
2023/08/13 04:49:07;;;;;;;6.00;2.77;;;16.50;99.90;;;;;;5083058;28;20851;-63
2023/08/13 04:51:33;;;;;;;3.30;2.70;;;16.50;99.90;;;;;;5083617;28;20314;-63
2023/08/13 04:53:59;;;;;;;2.70;2.10;;;16.50;99.90;;;;;;5082788;28;20227;-63
2023/08/13 04:56:24;;;;;;;3.70;3.30;;;16.50;99.90;;;;;;5082602;28;20893;-64
2023/08/13 04:58:50;;;;;;;6.57;2.80;;;16.60;99.90;;;;;;5081436;28;20260;-63
2023/08/13 05:01:16;;;;;;;3.53;2.57;;;16.60;99.90;;;;;;5083254;28;20215;-63
2023/08/13 05:03:41;;;;;;;2.90;2.70;;;16.60;99.90;;;;;;5083499;28;20230;-63
2023/08/13 05:06:07;;;;;;;5.13;3.43;;;16.70;99.90;;;;;;5085956;28;20709;-63
2023/08/13 05:08:32;;;;;;;7.17;3.33;;;16.70;99.90;;;;;;5083519;28;20191;-63
2023/08/13 05:10:58;;;;;;;5.83;3.47;;;16.70;99.90;;;;;;5102605;28;20190;-63
2023/08/13 05:13:24;;;;;;;5.83;3.00;;;16.70;99.90;;;;;;5103665;28;20183;-63
2023/08/13 05:15:50;;;;;;;5.57;3.30;;;16.80;99.90;;;;;;5103149;28;20494;-63
2023/08/13 05:18:15;;;;;;;3.83;3.10;;;16.80;99.90;;;;;;5101856;28;20178;-63
2023/08/13 05:20:41;;;;;;;6.63;3.30;;;16.90;99.90;;;;;;5103621;28;20653;-64
2023/08/13 05:23:07;;;;;;;6.70;3.20;;;17.00;99.90;;;;;;5102359;28;20184;-63
2023/08/13 05:25:38;;;;;;;6.07;2.80;;;17.00;99.90;;;;;;5102415;28;20207;-64
2023/08/13 05:28:07;;;;;;;5.67;3.33;;;17.10;99.90;;;;;;5101076;28;20219;-63
2023/08/13 05:30:37;;;;;;;5.63;3.50;;;17.20;99.90;;;;;;5103023;28;20433;-63
2023/08/13 05:33:03;;;;;;;7.30;3.23;;;17.20;99.90;;;;;;5101906;28;20664;-63
2023/08/13 05:35:29;;;;;;;4.87;2.83;;;17.30;99.90;;;;;;5096901;28;20417;-63
2023/08/13 05:37:54;;;;;;;8.30;3.53;;;17.30;99.90;;;;;;5102028;28;20176;-64
2023/08/13 05:40:20;;;;;;;7.73;3.10;;;17.40;99.90;;;;;;5102003;28;20176;-63
2023/08/13 05:42:46;;;;;;;5.53;2.77;;;17.50;99.90;;;;;;5102955;28;20184;-63
2023/08/13 05:45:12;;;;;;;5.67;2.80;;;17.40;99.90;;;;;;5101048;28;20575;-63
2023/08/13 05:47:37;;;;;;;5.80;2.60;;;17.40;99.90;;;;;;5102273;28;20912;-63
2023/08/13 05:50:04;;;;;;;7.27;3.10;;;17.40;99.90;;;;;;5103050;28;20420;-63
2023/08/13 05:52:29;;;;;;;8.80;3.10;;;17.40;99.90;;;;;;5102479;28;20183;-63
2023/08/13 05:54:56;;;;;;;5.10;2.73;;;17.40;99.90;;;;;;5102232;28;20810;-63
2023/08/13 05:57:21;;;;;;;4.33;2.10;;;17.40;99.90;;;;;;5101044;28;20168;-64
2023/08/13 05:59:47;;;;;;;3.40;2.53;;;17.40;99.90;;;;;;5101072;28;20467;-63
2023/08/13 06:02:13;;;;;;;5.57;2.40;;;17.40;99.90;;;;;;5083712;28;20281;-63
2023/08/13 06:04:38;;;;;;;5.60;2.50;;;17.50;99.90;;;;;;5101677;28;20176;-64
2023/08/13 06:07:04;;;;;;;5.40;2.77;;;17.50;99.90;;;;;;5101617;28;20260;-63
2023/08/13 06:09:33;;;;;;;4.60;2.50;;;17.60;99.90;;;;;;5101856;28;20768;-64
2023/08/13 06:12:00;;;;;;;7.03;2.80;;;17.60;99.90;;;;;;5102378;28;20187;-64
2023/08/13 06:14:26;;;;;;;3.87;2.60;;;17.60;99.90;;;;;;5083346;28;20513;-64
2023/08/13 06:16:51;;;;;;;4.23;2.40;;;17.70;99.90;;;;;;5101361;28;21287;-64
2023/08/13 06:19:18;;;;;;;5.73;3.17;;;17.70;99.90;;;;;;5101779;28;20171;-64
2023/08/13 06:21:43;;;;;;;5.23;2.40;;;17.70;99.90;;;;;;5101743;28;20221;-63
2023/08/13 06:24:09;;;;;;;7.03;2.60;;;17.70;99.90;;;;;;5101858;28;20911;-63
2023/08/13 06:26:35;;;;;;;4.33;2.20;;;17.70;99.90;;;;;;5101042;28;20211;-64
2023/08/13 06:29:01;;;;;;;3.30;2.50;;;17.80;99.90;;;;;;5110422;27;20183;-63
2023/08/13 06:31:26;;;;;;;9.57;3.10;;;17.70;99.90;;;;;;5122063;27;20220;-63
2023/08/13 06:33:52;;;;;;;3.43;2.60;;;17.80;99.90;;;;;;5120829;27;20239;-64
2023/08/13 06:36:18;;;;;;;4.73;2.00;;;17.80;99.90;;;;;;5121514;27;20830;-63
2023/08/13 06:38:43;;;;;;;4.33;2.30;;;17.80;99.90;;;;;;5121986;27;20178;-63
2023/08/13 06:41:09;;;;;;;6.80;3.00;;;17.90;99.90;;;;;;5122522;27;20294;-64
2023/08/13 06:43:35;;;;;;;4.67;2.33;;;18.00;99.90;;;;;;5122052;27;20262;-64
2023/08/13 06:46:02;;;;;;;5.50;2.30;;;18.10;99.90;;;;;;5121772;27;20199;-64
2023/08/13 06:48:32;;;;;;;5.33;2.27;;;18.10;99.90;;;;;;5120804;27;20432;-63
2023/08/13 06:50:58;;;;;;;3.00;2.00;;;18.30;99.90;;;;;;5121940;27;21139;-64
2023/08/13 06:53:24;;;;;;;6.63;2.80;;;18.50;99.90;;;;;;5121475;27;20485;-63
2023/08/13 06:55:50;;;;;;;4.03;2.30;;;18.70;99.90;;;;;;5120934;27;20424;-64
2023/08/13 06:58:17;;;;;;;6.13;2.57;;;18.80;99.90;;;;;;5121359;27;21338;-63
2023/08/13 07:00:43;;;;;;;6.23;3.30;;;18.80;99.90;;;;;;5121687;27;20922;-63
2023/08/13 07:03:09;;;;;;;9.20;3.10;;;18.80;99.90;;;;;;5113597;27;20433;-63
2023/08/13 07:05:40;;;;;;;6.00;2.40;;;18.90;99.90;;;;;;5098033;28;21540;-64
2023/08/13 07:08:06;;;;;;;4.00;2.60;;;18.90;99.90;;;;;;5096423;28;20932;-63
2023/08/13 07:10:32;;;;;;;8.20;2.57;;;18.90;99.90;;;;;;5099983;28;20422;-63
2023/08/13 07:12:58;;;;;;;4.40;1.70;;;19.00;99.90;;;;;;5101288;28;20422;-64
2023/08/13 07:15:24;;;;;;;7.73;2.87;;;19.10;99.90;;;;;;5100818;28;20418;-63
2023/08/13 07:17:50;;;;;;;3.83;2.20;;;19.10;99.90;;;;;;5094399;28;20287;-63
2023/08/13 07:20:16;;;;;;;6.87;2.60;;;19.20;99.90;;;;;;5099593;28;20521;-64
2023/08/13 07:22:43;;;;;;;7.53;2.23;;;19.20;99.90;;;;;;5099826;28;20441;-64
2023/08/13 07:25:11;;;;;;;5.97;2.30;;;19.30;99.90;;;;;;5101175;28;20184;-63
2023/08/13 07:27:37;;;;;;;2.73;2.10;;;19.40;99.90;;;;;;5100590;28;20469;-64
2023/08/13 07:30:05;;;;;;;4.20;2.20;;;19.50;99.90;;;;;;5118001;28;20462;-64
2023/08/13 07:32:31;;;;;;;6.90;2.43;;;19.60;99.90;;;;;;5120913;28;20421;-64
2023/08/13 07:34:56;;;;;;;4.90;2.10;;;19.70;99.90;;;;;;5121325;28;20452;-64
2023/08/13 07:37:22;;;;;;;16.63;2.43;;;19.70;99.90;;;;;;5119693;28;20190;-63
2023/08/13 07:39:48;;;;;;;5.03;1.97;;;19.80;99.90;;;;;;5121223;28;20187;-64
2023/08/13 07:42:14;;;;;;;4.83;2.30;;;19.80;99.90;;;;;;5121602;28;20236;-64
2023/08/13 07:44:39;;;;;;;5.00;2.47;;;20.00;99.90;;;;;;5104563;28;20184;-63
2023/08/13 07:47:05;;;;;;;4.47;1.80;;;20.10;99.90;;;;;;5094660;28;20461;-61
2023/08/13 07:49:31;;;;;;;3.77;1.87;;;20.20;99.90;;;;;;5099683;28;20219;-61
2023/08/13 07:51:57;;;;;;;9.00;1.83;;;20.30;99.90;;;;;;5100707;28;20569;-61
2023/08/13 07:54:23;;;;;;;4.07;3.00;;;20.40;99.90;;;;;;5100300;28;20428;-61
2023/08/13 07:56:49;;;;;;;3.60;1.80;;;20.40;99.90;;;;;;5099186;28;20311;-62
2023/08/13 07:59:15;;;;;;;4.43;2.00;;;20.50;99.90;;;;;;5100847;28;20418;-61
2023/08/13 08:01:43;;;;;;;5.53;1.70;;;20.50;99.90;;;;;;5086393;28;20665;-62
2023/08/13 08:04:09;;;;;;;11.90;2.03;;;20.50;99.90;;;;;;5080523;28;20321;-62
2023/08/13 08:06:35;;;;;;;7.27;2.40;;;20.60;99.90;;;;;;5082980;28;20460;-62
2023/08/13 08:09:00;;;;;;;5.60;2.17;;;20.60;99.90;;;;;;5103643;28;20184;-61
2023/08/13 08:11:26;;;;;;;6.23;1.87;;;20.60;99.90;;;;;;5103655;28;20209;-62
2023/08/13 08:13:52;;;;;;;5.03;1.80;;;20.60;99.90;;;;;;5103985;28;20179;-61
2023/08/13 08:16:18;;;;;;;5.67;1.83;;;20.60;99.90;;;;;;5103658;28;20775;-62
2023/08/13 08:18:43;;;;;;;5.57;2.53;;;20.70;99.90;;;;;;5102194;28;20240;-62
2023/08/13 08:21:09;;;;;;;3.93;1.40;;;20.70;99.90;;;;;;5104373;28;20184;-62
2023/08/13 08:23:35;;;;;;;3.83;1.70;;;20.90;99.90;;;;;;5103559;28;20625;-62
2023/08/13 08:26:00;;;;;;;2.50;1.60;;;20.90;99.90;;;;;;5103675;28;20215;-63
2023/08/13 08:28:26;;;;;;;3.80;1.70;;;21.00;99.90;;;;;;5103458;28;20518;-62
2023/08/13 08:30:52;;;;;;;4.03;1.50;;;21.10;99.90;;;;;;5103226;28;20179;-62
2023/08/13 08:33:21;;;;;;;3.43;1.70;;;21.10;99.90;;;;;;5104294;28;20186;-62
2023/08/13 08:35:46;;;;;;;6.63;1.73;;;21.00;99.90;;;;;;5102615;28;20525;-62
2023/08/13 08:38:13;;;;;;;3.77;1.70;;;21.00;99.90;;;;;;5103717;28;20422;-61
2023/08/13 08:40:42;;;;;;;2.60;1.50;;;21.00;99.90;;;;;;5103278;28;20290;-62
2023/08/13 08:43:09;;;;;;;5.23;1.73;;;21.00;99.90;;;;;;5103903;28;20468;-61
2023/08/13 08:45:37;;;;;;;3.13;1.57;;;20.90;99.90;;;;;;5103289;28;20513;-62
2023/08/13 08:48:04;;;;;;;3.80;1.67;;;20.90;99.90;;;;;;5084629;28;20448;-62
2023/08/13 08:50:30;;;;;;;3.53;1.60;;;20.90;99.90;;;;;;5103564;28;20421;-62
2023/08/13 08:52:56;;;;;;;3.33;1.80;;;21.00;99.90;;;;;;5092878;28;20406;-63
2023/08/13 08:55:22;;;;;;;3.50;1.57;;;21.00;99.90;;;;;;5091188;28;20417;-62
2023/08/13 08:57:49;;;;;;;2.70;1.50;;;21.10;99.90;;;;;;5087402;28;20419;-62
2023/08/13 09:00:15;;;;;;;3.20;1.70;;;21.10;99.90;;;;;;5081430;28;20203;-62
2023/08/13 09:02:43;;;;;;;3.90;1.40;;;21.20;99.90;;;;;;5082995;28;20410;-62
2023/08/13 09:05:09;;;;;;;5.23;1.60;;;21.20;99.90;;;;;;5083388;28;20421;-63
2023/08/13 09:07:34;;;;;;;4.00;1.40;;;21.20;99.90;;;;;;5098593;28;21085;-62
2023/08/13 09:10:04;;;;;;;7.17;1.37;;;21.20;99.90;;;;;;5102104;28;20168;-62
2023/08/13 09:12:41;;;;;;;6.30;1.97;;;21.30;99.90;;;;;;5103632;28;20183;-62
2023/08/13 09:15:09;;;;;;;2.30;1.20;;;21.40;99.90;;;;;;5102754;28;20811;-63
2023/08/13 09:17:35;;;;;;;5.00;1.90;;;21.50;99.90;;;;;;5101652;28;21273;-62
2023/08/13 09:20:17;;;;;;;4.63;1.57;;;21.50;99.90;;;;;;5102197;28;20497;-63
2023/08/13 09:22:52;;;;;;;4.07;1.60;;;21.60;99.90;;;;;;5102749;28;20414;-61
2023/08/13 09:25:19;;;;;;;5.10;1.97;;;21.60;99.90;;;;;;5102977;28;20775;-61
2023/08/13 09:27:46;;;;;;;2.60;1.60;;;21.70;99.90;;;;;;5101950;28;20461;-62
2023/08/13 09:30:19;;;;;;;3.00;1.43;;;21.80;99.90;;;;;;5109102;27;20441;-62
2023/08/13 09:32:49;;;;;;;3.73;1.83;;;21.90;99.90;;;;;;5094354;28;20421;-63
2023/08/13 09:35:16;;;;;;;3.10;1.50;;;21.90;99.90;;;;;;5082066;28;20424;-62
2023/08/13 09:37:42;;;;;;;3.40;1.60;;;22.00;99.90;;;;;;5084477;28;20964;-63
2023/08/13 09:40:08;;;;;;;7.00;1.87;;;22.00;99.90;;;;;;5092588;28;20549;-62
2023/08/13 09:42:35;;;;;;;7.17;1.63;;;22.10;99.90;;;;;;5091461;28;21062;-61
2023/08/13 09:45:02;;;;;;;2.27;1.50;;;22.20;99.90;;;;;;5091283;28;20453;-61
2023/08/13 09:47:29;;;;;;;2.30;1.73;;;22.20;99.90;;;;;;5088276;28;20822;-62
2023/08/13 09:49:58;;;;;;;3.87;1.50;;;22.20;99.90;;;;;;5097537;28;20421;-61
2023/08/13 09:52:27;;;;;;;3.50;1.80;;;22.30;99.90;;;;;;5092031;28;20437;-61
2023/08/13 09:55:16;;;;;;;3.73;1.80;;;22.30;99.90;;;;;;5094765;28;20970;-61
2023/08/13 09:57:43;;;;;;;2.97;1.60;;;22.30;99.90;;;;;;5102210;28;20521;-63
2023/08/13 10:00:11;;;;;;;6.60;1.90;;;22.20;99.90;;;;;;5100511;28;20425;-62
2023/08/13 10:02:40;;;;;;;5.47;1.73;;;22.30;99.90;;;;;;5101458;28;20926;-62
2023/08/13 10:05:07;;;;;;;2.80;1.90;;;22.30;99.90;;;;;;5098777;28;20441;-62
2023/08/13 10:07:36;;;;;;;4.37;2.17;;;22.30;99.90;;;;;;5100636;28;20465;-62
2023/08/13 10:10:05;;;;;;;3.53;1.63;;;22.30;99.90;;;;;;5099191;28;20453;-62
2023/08/13 10:12:31;;;;;;;5.00;1.73;;;22.30;99.90;;;;;;5100497;28;20468;-62
2023/08/13 10:14:58;;;;;;;4.70;1.67;;;22.40;99.90;;;;;;5095658;28;20893;-62
2023/08/13 10:17:26;;;;;;;3.17;1.83;;;22.50;99.90;;;;;;5094518;28;20426;-62
2023/08/13 10:19:55;;;;;;;2.80;1.53;;;22.60;99.90;;;;;;5091415;28;20524;-62
2023/08/13 10:22:40;;;;;;;3.90;1.90;;;22.70;99.90;;;;;;5091301;28;20433;-62
2023/08/13 10:25:07;;;;;;;3.87;2.00;;;22.90;99.90;;;;;;5096163;28;20433;-62
2023/08/13 10:27:53;;;;;;;4.90;1.70;;;23.00;99.90;;;;;;5100440;28;20517;-62
2023/08/13 10:30:19;;;;;;;3.43;1.60;;;23.10;99.90;;;;;;5094588;28;20441;-62
2023/08/13 10:32:56;;;;;;;2.77;1.43;;;23.10;99.90;;;;;;5101392;28;20486;-62
2023/08/13 10:35:31;;;;;;;5.23;1.67;;;23.10;99.90;;;;;;5068427;28;20187;-63
2023/08/13 10:38:01;;;;;;;5.00;1.80;;;23.00;99.90;;;;;;5097608;28;20433;-62
2023/08/13 10:40:27;;;;;;;4.07;1.50;;;22.90;99.90;;;;;;5096447;28;20424;-62
2023/08/13 10:42:57;;;;;;;2.07;1.60;;;22.90;99.90;;;;;;5100933;28;20534;-62
2023/08/13 10:45:32;;;;;;;3.60;2.07;;;22.80;99.90;;;;;;5102181;28;20436;-61
2023/08/13 10:48:05;;;;;;;3.17;1.93;;;22.80;99.90;;;;;;5100533;28;20428;-62
2023/08/13 10:50:41;;;;;;;3.43;1.77;;;22.80;99.90;;;;;;5101619;28;20452;-62
2023/08/13 10:53:12;;;;;;;3.93;2.00;;;22.70;99.90;;;;;;5101140;28;20428;-62
2023/08/13 10:55:45;;;;;;;4.33;2.00;;;22.70;99.90;;;;;;5101069;28;20426;-63
2023/08/13 10:58:30;;;;;;;2.43;1.50;;;22.60;99.90;;;;;;5100975;28;20433;-62
2023/08/13 11:01:09;;;;;;;2.90;1.60;;;22.40;99.90;;;;;;5100184;28;20521;-62
2023/08/13 11:03:52;;;;;;;3.83;1.80;;;22.40;99.90;;;;;;5101393;28;20421;-62
2023/08/13 11:06:23;;;;;;;3.13;1.87;;;22.40;99.90;;;;;;5100676;28;20465;-62
2023/08/13 11:08:49;;;;;;;6.07;2.03;;;22.30;99.90;;;;;;5100761;28;20497;-61
2023/08/13 11:11:16;;;;;;;5.40;2.70;;;22.40;99.90;;;;;;5101483;28;20409;-63
2023/08/13 11:13:42;;;;;;;4.57;1.80;;;22.40;99.90;;;;;;5100920;28;20421;-62
2023/08/13 11:16:08;;;;;;;4.17;2.07;;;22.50;99.90;;;;;;5100790;28;20752;-62
2023/08/13 11:18:33;;;;;;;5.00;2.20;;;22.60;99.90;;;;;;5081596;28;20430;-62
2023/08/13 11:21:00;;;;;;;3.70;1.80;;;22.80;99.90;;;;;;5080253;28;20216;-62
2023/08/13 11:23:26;;;;;;;4.90;2.40;;;22.90;99.90;;;;;;5081118;28;20181;-62
2023/08/13 11:25:52;;;;;;;3.83;2.17;;;22.90;99.90;;;;;;5088713;28;20503;-62
2023/08/13 11:28:26;;;;;;;3.20;2.10;;;23.00;99.90;;;;;;5093209;28;20626;-62
2023/08/13 11:30:57;;;;;;;3.40;2.07;;;23.00;99.90;;;;;;5088216;28;20779;-62
2023/08/13 11:33:23;;;;;;;5.10;2.30;;;23.00;99.90;;;;;;5090103;28;20445;-62
2023/08/13 11:35:50;;;;;;;7.73;2.00;;;23.10;99.90;;;;;;5087830;28;21407;-61
2023/08/13 11:38:16;;;;;;;6.27;2.20;;;23.20;99.90;;;;;;5091974;28;20421;-62
2023/08/13 11:40:42;;;;;;;2.70;1.70;;;23.40;99.90;;;;;;5096261;28;20477;-61
2023/08/13 11:43:13;;;;;;;7.03;2.60;;;23.50;99.90;;;;;;5092038;28;21084;-61
2023/08/13 11:45:39;;;;;;;4.10;2.40;;;23.70;99.90;;;;;;5089362;28;20822;-61
2023/08/13 11:48:11;;;;;;;5.57;2.40;;;23.80;99.90;;;;;;5092409;28;20418;-62
2023/08/13 11:50:39;;;;;;;6.43;2.43;;;23.90;99.90;;;;;;5071843;28;21187;-62
2023/08/13 11:53:09;;;;;;;4.40;2.33;;;23.80;99.90;;;;;;5095468;28;20429;-61
2023/08/13 11:55:37;;;;;;;2.90;2.00;;;23.70;99.90;;;;;;5096974;28;20779;-61
2023/08/13 11:58:04;;;;;;;4.37;2.40;;;23.50;99.90;;;;;;5098280;28;20433;-62
2023/08/13 12:00:31;;;;;;;3.33;2.33;;;23.50;99.90;;;;;;5095660;28;20445;-61
2023/08/13 12:02:58;;;;;;;2.60;2.20;;;23.50;99.90;;;;;;5095044;28;20536;-61
2023/08/13 12:05:27;;;;;;;4.50;2.90;;;23.50;99.90;;;;;;5098722;28;20490;-62
2023/08/13 12:07:57;;;;;;;6.40;2.13;;;23.50;99.90;;;;;;5076604;28;20479;-62
2023/08/13 12:10:23;;;;;;;3.47;2.57;;;23.40;99.90;;;;;;5094714;28;20436;-62
2023/08/13 12:12:48;;;;;;;4.80;2.70;;;23.30;99.90;;;;;;5095770;28;20425;-62
2023/08/13 12:15:16;;;;;;;5.93;2.80;;;23.30;99.90;;;;;;5076665;28;20453;-62
2023/08/13 12:17:41;;;;;;;3.13;2.30;;;23.30;99.90;;;;;;5098774;28;20184;-61
2023/08/13 12:20:10;;;;;;;7.10;2.47;;;23.40;99.90;;;;;;5094367;28;20440;-61
2023/08/13 12:22:36;;;;;;;6.77;2.33;;;23.40;99.90;;;;;;5092499;28;20219;-61
2023/08/13 12:25:01;;;;;;;6.17;3.00;;;23.40;99.90;;;;;;5099579;28;20552;-61
2023/08/13 12:27:27;;;;;;;4.57;2.57;;;23.40;99.90;;;;;;5098516;28;20216;-62
2023/08/13 12:29:52;;;;;;;6.43;2.80;;;23.40;99.90;;;;;;5100703;28;20195;-62
2023/08/13 12:32:18;;;;;;;4.83;2.20;;;23.40;99.90;;;;;;5104582;27;20190;-61
2023/08/13 12:34:44;;;;;;;2.97;2.33;;;23.30;99.90;;;;;;5101978;28;20176;-63
2023/08/13 12:37:09;;;;;;;6.83;3.07;;;23.30;99.90;;;;;;5102165;28;20306;-62
2023/08/13 12:39:35;;;;;;;5.70;2.80;;;23.30;99.90;;;;;;5104297;28;20546;-61
2023/08/13 12:42:01;;;;;;;5.13;2.43;;;23.40;99.90;;;;;;5102692;28;20538;-61
2023/08/13 12:44:26;;;;;;;6.43;2.87;;;23.40;99.90;;;;;;5103367;28;20175;-62